sensor_id;sensor_type;location;lat;lon;timestamp;pressure;altitude;pressure_sealevel;temperature;humidity
44481;BME280;30184;42.018;23.670;2023-02-17T00:01:38;92465.50;;;-2.69;83.11
44481;BME280;30184;42.018;23.670;2023-02-17T00:04:08;92485.28;;;-2.57;83.06
44481;BME280;30184;42.018;23.670;2023-02-17T00:06:38;92482.94;;;-2.59;82.92
44481;BME280;30184;42.018;23.670;2023-02-17T00:09:07;92493.91;;;-2.60;82.81
44481;BME280;30184;42.018;23.670;2023-02-17T00:11:36;92476.41;;;-2.61;83.19
44481;BME280;30184;42.018;23.670;2023-02-17T00:14:05;92463.72;;;-2.77;82.96
44481;BME280;30184;42.018;23.670;2023-02-17T00:16:34;92454.38;;;-2.83;83.15
44481;BME280;30184;42.018;23.670;2023-02-17T00:19:03;92483.34;;;-2.69;83.34
44481;BME280;30184;42.018;23.670;2023-02-17T00:21:54;92483.69;;;-2.71;83.44
44481;BME280;30184;42.018;23.670;2023-02-17T00:24:25;92472.59;;;-2.73;83.16
44481;BME280;30184;42.018;23.670;2023-02-17T00:26:54;92472.59;;;-2.73;83.28
44481;BME280;30184;42.018;23.670;2023-02-17T00:29:23;92452.13;;;-3.14;83.15
44481;BME280;30184;42.018;23.670;2023-02-17T00:31:54;92466.50;;;-2.73;83.19
44481;BME280;30184;42.018;23.670;2023-02-17T00:34:23;92445.97;;;-2.85;83.22
44481;BME280;30184;42.018;23.670;2023-02-17T00:36:55;92412.69;;;-3.03;83.32
44481;BME280;30184;42.018;23.670;2023-02-17T00:39:25;92360.44;;;-3.73;83.23
44481;BME280;30184;42.018;23.670;2023-02-17T00:41:54;92400.47;;;-3.16;83.24
44481;BME280;30184;42.018;23.670;2023-02-17T00:44:24;92470.56;;;-2.76;83.44
44481;BME280;30184;42.018;23.670;2023-02-17T00:46:52;92327.81;;;-3.95;83.24
44481;BME280;30184;42.018;23.670;2023-02-17T00:49:23;92450.09;;;-2.75;83.43
44481;BME280;30184;42.018;23.670;2023-02-17T00:51:53;92461.50;;;-2.75;83.76
44481;BME280;30184;42.018;23.670;2023-02-17T00:54:23;92460.28;;;-2.77;83.74
44481;BME280;30184;42.018;23.670;2023-02-17T00:56:52;92454.97;;;-2.77;83.83
44481;BME280;30184;42.018;23.670;2023-02-17T00:59:22;92460.63;;;-2.79;83.87
44481;BME280;30184;42.018;23.670;2023-02-17T01:01:52;92445.22;;;-3.06;83.84
44481;BME280;30184;42.018;23.670;2023-02-17T01:04:21;92458.59;;;-2.82;83.87
44481;BME280;30184;42.018;23.670;2023-02-17T01:06:50;92456.28;;;-2.83;83.87
44481;BME280;30184;42.018;23.670;2023-02-17T01:09:19;92456.28;;;-2.83;83.75
44481;BME280;30184;42.018;23.670;2023-02-17T01:11:50;92508.94;;;-3.06;83.72
44481;BME280;30184;42.018;23.670;2023-02-17T01:14:18;92442.22;;;-2.84;83.91
44481;BME280;30184;42.018;23.670;2023-02-17T01:16:48;92427.75;;;-2.95;83.72
44481;BME280;30184;42.018;23.670;2023-02-17T01:19:18;92439.56;;;-2.84;83.80
44481;BME280;30184;42.018;23.670;2023-02-17T01:21:47;92435.81;;;-2.83;83.71
44481;BME280;30184;42.018;23.670;2023-02-17T01:24:16;92399.63;;;-3.08;83.86
44481;BME280;30184;42.018;23.670;2023-02-17T01:26:45;92419.47;;;-2.93;83.62
44481;BME280;30184;42.018;23.670;2023-02-17T01:29:16;92426.59;;;-2.85;84.15
44481;BME280;30184;42.018;23.670;2023-02-17T01:31:44;92428.47;;;-2.86;84.04
44481;BME280;30184;42.018;23.670;2023-02-17T01:34:13;92425.81;;;-2.86;84.36
44481;BME280;30184;42.018;23.670;2023-02-17T01:36:42;92420.50;;;-2.86;84.38
44481;BME280;30184;42.018;23.670;2023-02-17T01:39:12;92396.19;;;-3.09;84.38
44481;BME280;30184;42.018;23.670;2023-02-17T01:41:42;92417.84;;;-2.86;84.33
44481;BME280;30184;42.018;23.670;2023-02-17T01:44:16;92399.00;;;-2.93;84.40
44481;BME280;30184;42.018;23.670;2023-02-17T01:46:46;92415.19;;;-2.86;84.34
44481;BME280;30184;42.018;23.670;2023-02-17T01:49:21;92336.69;;;-3.28;84.42
44481;BME280;30184;42.018;23.670;2023-02-17T01:51:55;92394.72;;;-2.85;84.32
44481;BME280;30184;42.018;23.670;2023-02-17T01:54:28;92327.56;;;-3.60;84.42
44481;BME280;30184;42.018;23.670;2023-02-17T01:56:58;92380.63;;;-2.98;84.65
44481;BME280;30184;42.018;23.670;2023-02-17T01:59:31;92403.78;;;-2.86;84.75
44481;BME280;30184;42.018;23.670;2023-02-17T02:02:03;92387.84;;;-2.86;84.79
44481;BME280;30184;42.018;23.670;2023-02-17T02:04:35;92400.34;;;-2.87;84.92
44481;BME280;30184;42.018;23.670;2023-02-17T02:07:10;92381.06;;;-2.96;84.83
44481;BME280;30184;42.018;23.670;2023-02-17T02:09:42;92388.22;;;-2.88;84.88
44481;BME280;30184;42.018;23.670;2023-02-17T02:12:17;92388.97;;;-2.87;84.99
44481;BME280;30184;42.018;23.670;2023-02-17T02:14:48;92392.38;;;-2.87;85.01
44481;BME280;30184;42.018;23.670;2023-02-17T02:17:25;92315.78;;;-3.30;84.86
44481;BME280;30184;42.018;23.670;2023-02-17T02:20:27;92390.59;;;-2.95;84.99
44481;BME280;30184;42.018;23.670;2023-02-17T02:23:17;92398.47;;;-2.86;84.96
44481;BME280;30184;42.018;23.670;2023-02-17T02:26:12;92393.94;;;-2.86;84.95
44481;BME280;30184;42.018;23.670;2023-02-17T02:28:55;92387.53;;;-2.85;85.07
44481;BME280;30184;42.018;23.670;2023-02-17T02:31:41;92380.66;;;-2.86;85.01
44481;BME280;30184;42.018;23.670;2023-02-17T02:34:16;92385.97;;;-2.86;84.86
44481;BME280;30184;42.018;23.670;2023-02-17T02:36:50;92392.06;;;-2.85;85.03
44481;BME280;30184;42.018;23.670;2023-02-17T02:39:25;92379.56;;;-2.85;85.05
44481;BME280;30184;42.018;23.670;2023-02-17T02:42:00;92378.00;;;-2.86;84.89
44481;BME280;30184;42.018;23.670;2023-02-17T02:44:30;92316.00;;;-3.35;84.87
44481;BME280;30184;42.018;23.670;2023-02-17T02:47:02;92367.06;;;-2.84;84.87
44481;BME280;30184;42.018;23.670;2023-02-17T02:49:34;92329.91;;;-3.17;84.83
44481;BME280;30184;42.018;23.670;2023-02-17T02:52:08;92386.06;;;-2.94;84.83
44481;BME280;30184;42.018;23.670;2023-02-17T02:54:47;92323.91;;;-3.14;84.70
44481;BME280;30184;42.018;23.670;2023-02-17T02:57:29;92364.31;;;-2.88;84.70
44481;BME280;30184;42.018;23.670;2023-02-17T03:00:11;92372.50;;;-2.81;84.83
44481;BME280;30184;42.018;23.670;2023-02-17T03:02:48;92167.06;;;-4.20;84.50
44481;BME280;30184;42.018;23.670;2023-02-17T03:05:27;92358.78;;;-2.83;84.87
44481;BME280;30184;42.018;23.670;2023-02-17T03:08:04;92205.06;;;-4.37;84.97
44481;BME280;30184;42.018;23.670;2023-02-17T03:10:44;92181.28;;;-4.25;85.03
44481;BME280;30184;42.018;23.670;2023-02-17T03:13:13;92363.31;;;-2.83;85.02
44481;BME280;30184;42.018;23.670;2023-02-17T03:15:43;92368.94;;;-2.85;85.20
44481;BME280;30184;42.018;23.670;2023-02-17T03:18:12;92368.94;;;-2.85;85.14
44481;BME280;30184;42.018;23.670;2023-02-17T03:20:51;92432.22;;;-2.87;84.94
44481;BME280;30184;42.018;23.670;2023-02-17T03:23:20;92363.53;;;-2.88;85.01
44481;BME280;30184;42.018;23.670;2023-02-17T03:25:49;92366.50;;;-2.90;85.03
44481;BME280;30184;42.018;23.670;2023-02-17T03:28:18;92377.78;;;-2.93;85.17
44481;BME280;30184;42.018;23.670;2023-02-17T03:30:47;92352.91;;;-2.88;85.06
44481;BME280;30184;42.018;23.670;2023-02-17T03:33:16;92364.31;;;-2.88;85.02
44481;BME280;30184;42.018;23.670;2023-02-17T03:35:47;92346.22;;;-2.94;84.98
44481;BME280;30184;42.018;23.670;2023-02-17T03:38:16;92344.09;;;-3.01;85.00
44481;BME280;30184;42.018;23.670;2023-02-17T03:40:44;92364.72;;;-2.86;84.80
44481;BME280;30184;42.018;23.670;2023-02-17T03:43:15;92361.31;;;-2.86;84.95
44481;BME280;30184;42.018;23.670;2023-02-17T03:45:44;92373.38;;;-2.89;84.99
44481;BME280;30184;42.018;23.670;2023-02-17T03:48:13;92304.16;;;-3.38;84.74
44481;BME280;30184;42.018;23.670;2023-02-17T03:50:42;92327.94;;;-3.08;85.01
44481;BME280;30184;42.018;23.670;2023-02-17T03:53:12;92377.38;;;-2.83;84.89
44481;BME280;30184;42.018;23.670;2023-02-17T03:55:41;92363.75;;;-2.81;85.06
44481;BME280;30184;42.018;23.670;2023-02-17T03:58:10;92385.78;;;-2.81;84.81
44481;BME280;30184;42.018;23.670;2023-02-17T04:00:39;92358.13;;;-2.80;84.62
44481;BME280;30184;42.018;23.670;2023-02-17T04:03:08;92368.44;;;-2.78;84.54
44481;BME280;30184;42.018;23.670;2023-02-17T04:05:37;92374.50;;;-2.78;84.29
44481;BME280;30184;42.018;23.670;2023-02-17T04:08:06;92371.53;;;-2.76;84.24
44481;BME280;30184;42.018;23.670;2023-02-17T04:10:36;92361.66;;;-2.76;83.92
44481;BME280;30184;42.018;23.670;2023-02-17T04:13:05;92358.47;;;-2.81;83.78
44481;BME280;30184;42.018;23.670;2023-02-17T04:15:34;92346.19;;;-2.74;83.55
44481;BME280;30184;42.018;23.670;2023-02-17T04:18:03;92364.78;;;-2.74;83.54
44481;BME280;30184;42.018;23.670;2023-02-17T04:20:32;92345.09;;;-2.73;83.50
44481;BME280;30184;42.018;23.670;2023-02-17T04:23:01;92349.50;;;-2.77;83.44
44481;BME280;30184;42.018;23.670;2023-02-17T04:25:32;92127.66;;;-4.22;83.39
44481;BME280;30184;42.018;23.670;2023-02-17T04:28:03;92289.09;;;-3.33;83.33
44481;BME280;30184;42.018;23.670;2023-02-17T04:30:32;92343.66;;;-2.70;83.32
44481;BME280;30184;42.018;23.670;2023-02-17T04:33:02;92355.06;;;-2.70;83.30
44481;BME280;30184;42.018;23.670;2023-02-17T04:35:31;92283.91;;;-3.09;83.10
44481;BME280;30184;42.018;23.670;2023-02-17T04:38:00;92345.22;;;-2.69;83.28
44481;BME280;30184;42.018;23.670;2023-02-17T04:40:29;92361.59;;;-2.67;82.91
44481;BME280;30184;42.018;23.670;2023-02-17T04:42:58;92339.56;;;-2.68;83.02
44481;BME280;30184;42.018;23.670;2023-02-17T04:45:29;92352.84;;;-2.68;82.85
44481;BME280;30184;42.018;23.670;2023-02-17T04:47:58;92339.56;;;-2.68;82.94
44481;BME280;30184;42.018;23.670;2023-02-17T04:50:27;92290.19;;;-3.47;83.10
44481;BME280;30184;42.018;23.670;2023-02-17T04:52:56;92336.78;;;-2.71;83.27
44481;BME280;30184;42.018;23.670;2023-02-17T04:55:25;92329.56;;;-2.83;83.57
44481;BME280;30184;42.018;23.670;2023-02-17T04:57:54;92338.41;;;-3.12;83.75
44481;BME280;30184;42.018;23.670;2023-02-17T05:00:23;92308.59;;;-2.96;83.62
44481;BME280;30184;42.018;23.670;2023-02-17T05:02:53;92344.75;;;-2.71;83.50
44481;BME280;30184;42.018;23.670;2023-02-17T05:05:22;92347.09;;;-2.70;83.14
44481;BME280;30184;42.018;23.670;2023-02-17T05:07:51;92341.78;;;-2.70;83.22
44481;BME280;30184;42.018;23.670;2023-02-17T05:10:20;92352.06;;;-2.68;83.39
44481;BME280;30184;42.018;23.670;2023-02-17T05:12:50;92358.16;;;-2.68;83.36
44481;BME280;30184;42.018;23.670;2023-02-17T05:15:19;92359.38;;;-2.65;83.36
44481;BME280;30184;42.018;23.670;2023-02-17T05:17:48;92333.47;;;-2.68;83.35
44481;BME280;30184;42.018;23.670;2023-02-17T05:20:19;92352.06;;;-2.68;83.26
44481;BME280;30184;42.018;23.670;2023-02-17T05:22:47;92353.94;;;-2.69;83.07
44481;BME280;30184;42.018;23.670;2023-02-17T05:25:17;92362.03;;;-2.65;83.15
44481;BME280;30184;42.018;23.670;2023-02-17T05:27:46;92320.50;;;-2.82;83.06
44481;BME280;30184;42.018;23.670;2023-02-17T05:30:15;92377.34;;;-2.62;83.00
44481;BME280;30184;42.018;23.670;2023-02-17T05:32:44;92359.97;;;-2.59;83.00
44481;BME280;30184;42.018;23.670;2023-02-17T05:35:13;92372.13;;;-2.58;82.70
44481;BME280;30184;42.018;23.670;2023-02-17T05:37:43;92359.28;;;-2.56;82.87
44481;BME280;30184;42.018;23.670;2023-02-17T05:40:12;92373.03;;;-2.54;82.78
44481;BME280;30184;42.018;23.670;2023-02-17T05:42:41;92371.59;;;-2.52;82.67
44481;BME280;30184;42.018;23.670;2023-02-17T05:45:10;92374.25;;;-2.52;82.51
44481;BME280;30184;42.018;23.670;2023-02-17T05:47:39;92379.25;;;-2.50;82.44
44481;BME280;30184;42.018;23.670;2023-02-17T05:50:08;92362.63;;;-2.47;82.41
44481;BME280;30184;42.018;23.670;2023-02-17T05:52:37;92377.94;;;-2.44;82.70
44481;BME280;30184;42.018;23.670;2023-02-17T05:55:07;92381.91;;;-2.38;82.65
44481;BME280;30184;42.018;23.670;2023-02-17T05:57:36;92375.19;;;-2.36;82.42
44481;BME280;30184;42.018;23.670;2023-02-17T06:00:07;92391.34;;;-2.29;82.24
44481;BME280;30184;42.018;23.670;2023-02-17T06:02:39;92387.81;;;-2.20;81.93
44481;BME280;30184;42.018;23.670;2023-02-17T06:05:08;92366.44;;;-2.12;81.67
44481;BME280;30184;42.018;23.670;2023-02-17T06:07:37;92380.00;;;-2.05;81.60
44481;BME280;30184;42.018;23.670;2023-02-17T06:10:09;92342.84;;;-2.26;81.30
44481;BME280;30184;42.018;23.670;2023-02-17T06:12:38;92381.66;;;-1.88;81.13
44481;BME280;30184;42.018;23.670;2023-02-17T06:15:07;92389.94;;;-2.02;80.62
44481;BME280;30184;42.018;23.670;2023-02-17T06:17:36;92370.00;;;-1.71;80.66
44481;BME280;30184;42.018;23.670;2023-02-17T06:20:06;92396.25;;;-1.94;80.25
44481;BME280;30184;42.018;23.670;2023-02-17T06:22:36;92205.63;;;-2.67;79.84
44481;BME280;30184;42.018;23.670;2023-02-17T06:25:05;92375.88;;;-1.41;79.52
44481;BME280;30184;42.018;23.670;2023-02-17T06:27:36;92383.06;;;-1.30;79.35
44481;BME280;30184;42.018;23.670;2023-02-17T06:30:06;92361.00;;;-1.30;78.93
44481;BME280;30184;42.018;23.670;2023-02-17T06:32:35;92387.03;;;-1.11;78.16
44481;BME280;30184;42.018;23.670;2023-02-17T06:35:04;92363.78;;;-1.11;77.57
44481;BME280;30184;42.018;23.670;2023-02-17T06:37:33;92322.78;;;-1.22;77.36
44481;BME280;30184;42.018;23.670;2023-02-17T06:40:02;92377.69;;;-0.78;77.40
44481;BME280;30184;42.018;23.670;2023-02-17T06:42:31;92354.47;;;-0.77;76.80
44481;BME280;30184;42.018;23.670;2023-02-17T06:45:01;92385.91;;;-0.55;76.44
44481;BME280;30184;42.018;23.670;2023-02-17T06:47:33;92306.88;;;-1.06;76.32
44481;BME280;30184;42.018;23.670;2023-02-17T06:50:03;92349.66;;;-0.44;76.07
44481;BME280;30184;42.018;23.670;2023-02-17T06:52:32;92364.75;;;-0.20;75.76
44481;BME280;30184;42.018;23.670;2023-02-17T06:55:01;92352.84;;;-0.07;75.55
44481;BME280;30184;42.018;23.670;2023-02-17T06:57:29;92375.34;;;0.08;74.29
44481;BME280;30184;42.018;23.670;2023-02-17T06:59:58;92354.41;;;0.26;74.39
44481;BME280;30184;42.018;23.670;2023-02-17T07:02:29;92349.47;;;0.44;73.32
44481;BME280;30184;42.018;23.670;2023-02-17T07:04:57;92351.09;;;0.64;72.96
44481;BME280;30184;42.018;23.670;2023-02-17T07:07:26;92343.31;;;0.59;72.68
44481;BME280;30184;42.018;23.670;2023-02-17T07:09:55;92348.81;;;1.01;71.47
44481;BME280;30184;42.018;23.670;2023-02-17T07:12:26;92342.28;;;1.18;70.92
44481;BME280;30184;42.018;23.670;2023-02-17T07:14:55;92241.03;;;0.39;69.12
44481;BME280;30184;42.018;23.670;2023-02-17T07:17:24;92324.31;;;1.57;70.11
44481;BME280;30184;42.018;23.670;2023-02-17T07:19:54;92332.41;;;1.83;70.13
44481;BME280;30184;42.018;23.670;2023-02-17T07:22:23;92336.75;;;2.14;69.10
44481;BME280;30184;42.018;23.670;2023-02-17T07:24:53;92296.19;;;2.12;65.83
44481;BME280;30184;42.018;23.670;2023-02-17T07:27:22;92330.75;;;2.73;66.74
44481;BME280;30184;42.018;23.670;2023-02-17T07:29:51;92327.75;;;3.05;66.98
44481;BME280;30184;42.018;23.670;2023-02-17T07:32:20;92218.69;;;2.49;64.56
44481;BME280;30184;42.018;23.670;2023-02-17T07:34:49;92328.63;;;3.46;64.03
44481;BME280;30184;42.018;23.670;2023-02-17T07:37:19;92316.22;;;3.67;64.09
44481;BME280;30184;42.018;23.670;2023-02-17T07:39:48;92327.84;;;3.82;62.71
44481;BME280;30184;42.018;23.670;2023-02-17T07:42:18;92319.97;;;3.96;61.49
44481;BME280;30184;42.018;23.670;2023-02-17T07:44:47;92327.34;;;4.06;60.10
44481;BME280;30184;42.018;23.670;2023-02-17T07:47:16;92325.94;;;4.23;60.29
44481;BME280;30184;42.018;23.670;2023-02-17T07:49:45;92318.75;;;4.38;60.33
44481;BME280;30184;42.018;23.670;2023-02-17T07:52:15;92316.97;;;4.56;59.40
44481;BME280;30184;42.018;23.670;2023-02-17T07:54:46;92298.94;;;4.57;58.02
44481;BME280;30184;42.018;23.670;2023-02-17T07:57:15;92314.41;;;4.70;54.99
44481;BME280;30184;42.018;23.670;2023-02-17T07:59:45;92314.00;;;4.68;55.92
44481;BME280;30184;42.018;23.670;2023-02-17T08:02:14;92302.09;;;4.69;56.59
44481;BME280;30184;42.018;23.670;2023-02-17T08:04:43;92313.22;;;4.68;54.80
44481;BME280;30184;42.018;23.670;2023-02-17T08:07:12;92318.78;;;4.96;56.10
44481;BME280;30184;42.018;23.670;2023-02-17T08:09:41;92311.56;;;5.07;55.85
44481;BME280;30184;42.018;23.670;2023-02-17T08:12:28;92317.38;;;5.16;54.95
44481;BME280;30184;42.018;23.670;2023-02-17T08:15:14;92311.63;;;5.21;54.29
44481;BME280;30184;42.018;23.670;2023-02-17T08:17:43;92319.38;;;5.37;53.46
44481;BME280;30184;42.018;23.670;2023-02-17T08:20:12;92363.69;;;5.57;52.52
44481;BME280;30184;42.018;23.670;2023-02-17T08:22:42;92290.25;;;5.75;53.25
44481;BME280;30184;42.018;23.670;2023-02-17T08:25:11;92300.75;;;6.08;53.12
44481;BME280;30184;42.018;23.670;2023-02-17T08:27:41;92299.63;;;6.34;51.54
44481;BME280;30184;42.018;23.670;2023-02-17T08:30:10;92301.94;;;6.57;50.73
44481;BME280;30184;42.018;23.670;2023-02-17T08:32:39;92305.78;;;6.73;48.36
44481;BME280;30184;42.018;23.670;2023-02-17T08:35:08;92285.72;;;6.89;49.32
44481;BME280;30184;42.018;23.670;2023-02-17T08:37:37;92294.91;;;7.05;48.74
44481;BME280;30184;42.018;23.670;2023-02-17T08:40:07;92295.66;;;7.20;48.02
44481;BME280;30184;42.018;23.670;2023-02-17T08:42:36;92261.75;;;7.12;47.47
44481;BME280;30184;42.018;23.670;2023-02-17T08:45:08;92289.28;;;7.76;47.88
44481;BME280;30184;42.018;23.670;2023-02-17T08:47:37;92290.69;;;7.99;46.21
44481;BME280;30184;42.018;23.670;2023-02-17T08:50:08;92182.44;;;7.61;46.57
44481;BME280;30184;42.018;23.670;2023-02-17T08:52:37;92280.72;;;8.47;44.37
44481;BME280;30184;42.018;23.670;2023-02-17T08:55:06;92280.94;;;8.71;44.67
44481;BME280;30184;42.018;23.670;2023-02-17T08:57:35;92263.31;;;8.93;43.86
44481;BME280;30184;42.018;23.670;2023-02-17T09:00:08;92266.09;;;9.23;44.36
44481;BME280;30184;42.018;23.670;2023-02-17T09:02:37;92252.56;;;9.23;42.93
44481;BME280;30184;42.018;23.670;2023-02-17T09:05:10;92276.25;;;9.50;40.33
44481;BME280;30184;42.018;23.670;2023-02-17T09:07:40;92261.81;;;9.90;40.89
44481;BME280;30184;42.018;23.670;2023-02-17T09:10:10;92228.25;;;9.50;40.02
44481;BME280;30184;42.018;23.670;2023-02-17T09:12:39;92246.53;;;10.30;39.69
44481;BME280;30184;42.018;23.670;2023-02-17T09:15:10;92232.00;;;10.44;40.00
44481;BME280;30184;42.018;23.670;2023-02-17T09:17:39;92244.75;;;10.70;37.32
44481;BME280;30184;42.018;23.670;2023-02-17T09:20:09;92217.25;;;10.45;37.12
44481;BME280;30184;42.018;23.670;2023-02-17T09:22:50;92254.41;;;10.95;36.77
44481;BME280;30184;42.018;23.670;2023-02-17T09:25:19;92243.72;;;11.07;36.37
44481;BME280;30184;42.018;23.670;2023-02-17T09:27:48;92196.75;;;10.87;36.74
44481;BME280;30184;42.018;23.670;2023-02-17T09:30:19;92247.88;;;11.35;36.19
44481;BME280;30184;42.018;23.670;2023-02-17T09:32:48;92250.50;;;11.58;35.45
44481;BME280;30184;42.018;23.670;2023-02-17T09:35:17;92220.28;;;11.76;34.35
44481;BME280;30184;42.018;23.670;2023-02-17T09:37:46;92225.78;;;12.09;34.39
44481;BME280;30184;42.018;23.670;2023-02-17T09:40:18;92220.72;;;12.27;34.68
44481;BME280;30184;42.018;23.670;2023-02-17T09:42:48;92220.28;;;12.28;32.82
44481;BME280;30184;42.018;23.670;2023-02-17T09:45:21;92210.00;;;12.36;33.62
44481;BME280;30184;42.018;23.670;2023-02-17T09:47:54;92219.03;;;12.49;32.78
44481;BME280;30184;42.018;23.670;2023-02-17T09:50:27;92207.56;;;12.42;32.23
44481;BME280;30184;42.018;23.670;2023-02-17T09:53:02;92218.44;;;12.58;32.43
44481;BME280;30184;42.018;23.670;2023-02-17T09:55:36;92161.69;;;12.08;32.13
44481;BME280;30184;42.018;23.670;2023-02-17T09:58:09;92206.84;;;12.70;32.95
44481;BME280;30184;42.018;23.670;2023-02-17T10:00:45;92188.41;;;12.61;30.75
44481;BME280;30184;42.018;23.670;2023-02-17T10:03:15;92204.28;;;12.79;31.39
44481;BME280;30184;42.018;23.670;2023-02-17T10:05:50;92203.22;;;12.77;31.43
44481;BME280;30184;42.018;23.670;2023-02-17T10:08:22;92200.06;;;12.78;32.24
44481;BME280;30184;42.018;23.670;2023-02-17T10:10:58;92192.03;;;12.71;32.80
44481;BME280;30184;42.018;23.670;2023-02-17T10:13:31;92185.00;;;12.74;33.52
44481;BME280;30184;42.018;23.670;2023-02-17T10:16:05;92181.31;;;12.80;32.92
44481;BME280;30184;42.018;23.670;2023-02-17T10:18:39;92134.69;;;12.62;32.75
44481;BME280;30184;42.018;23.670;2023-02-17T10:21:14;92172.38;;;12.96;31.66
44481;BME280;30184;42.018;23.670;2023-02-17T10:24:16;92050.81;;;12.28;31.73
44481;BME280;30184;42.018;23.670;2023-02-17T10:27:03;92057.03;;;11.64;31.67
44481;BME280;30184;42.018;23.670;2023-02-17T10:29:43;92163.59;;;12.88;32.23
44481;BME280;30184;42.018;23.670;2023-02-17T10:32:22;92155.19;;;12.83;32.68
44481;BME280;30184;42.018;23.670;2023-02-17T10:35:09;92167.28;;;12.82;33.11
44481;BME280;30184;42.018;23.670;2023-02-17T10:37:44;92147.63;;;12.74;32.75
44481;BME280;30184;42.018;23.670;2023-02-17T10:40:18;92177.81;;;12.80;32.67
44481;BME280;30184;42.018;23.670;2023-02-17T10:42:50;92152.22;;;12.77;32.24
44481;BME280;30184;42.018;23.670;2023-02-17T10:45:26;92145.41;;;12.85;32.39
44481;BME280;30184;42.018;23.670;2023-02-17T10:48:05;92137.72;;;12.96;32.33
44481;BME280;30184;42.018;23.670;2023-02-17T10:50:36;92138.72;;;13.02;32.19
44481;BME280;30184;42.018;23.670;2023-02-17T10:53:12;92078.00;;;12.44;32.34
44481;BME280;30184;42.018;23.670;2023-02-17T10:55:49;92130.22;;;13.29;32.04
44481;BME280;30184;42.018;23.670;2023-02-17T10:58:32;92115.50;;;13.39;32.09
44481;BME280;30184;42.018;23.670;2023-02-17T11:01:03;92109.09;;;13.46;31.77
44481;BME280;30184;42.018;23.670;2023-02-17T11:03:35;92108.00;;;13.56;31.44
44481;BME280;30184;42.018;23.670;2023-02-17T11:06:15;92110.50;;;13.38;31.24
44481;BME280;30184;42.018;23.670;2023-02-17T11:08:48;92096.16;;;13.88;32.14
44481;BME280;30184;42.018;23.670;2023-02-17T11:11:19;92096.47;;;14.03;31.50
44481;BME280;30184;42.018;23.670;2023-02-17T11:14:00;92086.75;;;14.14;31.18
44481;BME280;30184;42.018;23.670;2023-02-17T11:16:35;92080.19;;;14.25;30.54
44481;BME280;30184;42.018;23.670;2023-02-17T11:19:16;92086.50;;;14.34;30.58
44481;BME280;30184;42.018;23.670;2023-02-17T11:21:47;92078.84;;;14.42;30.16
44481;BME280;30184;42.018;23.670;2023-02-17T11:24:17;92081.91;;;14.44;29.45
44481;BME280;30184;42.018;23.670;2023-02-17T11:26:54;92058.00;;;14.35;29.88
44481;BME280;30184;42.018;23.670;2023-02-17T11:29:24;92065.72;;;14.49;29.55
44481;BME280;30184;42.018;23.670;2023-02-17T11:31:55;92032.22;;;14.36;30.01
44481;BME280;30184;42.018;23.670;2023-02-17T11:34:28;92071.00;;;14.66;28.72
44481;BME280;30184;42.018;23.670;2023-02-17T11:37:00;92066.97;;;14.70;28.63
44481;BME280;30184;42.018;23.670;2023-02-17T11:39:29;92068.34;;;14.75;28.40
44481;BME280;30184;42.018;23.670;2023-02-17T11:42:13;92102.56;;;14.79;28.21
44481;BME280;30184;42.018;23.670;2023-02-17T11:44:43;92028.28;;;14.72;28.13
44481;BME280;30184;42.018;23.670;2023-02-17T11:47:17;92061.28;;;14.99;27.50
44481;BME280;30184;42.018;23.670;2023-02-17T11:50:07;92059.81;;;15.07;27.33
44481;BME280;30184;42.018;23.670;2023-02-17T11:52:48;92064.06;;;15.08;26.46
44481;BME280;30184;42.018;23.670;2023-02-17T11:55:28;92056.38;;;15.16;26.97
44481;BME280;30184;42.018;23.670;2023-02-17T11:58:11;92040.16;;;15.21;26.96
44481;BME280;30184;42.018;23.670;2023-02-17T12:00:50;92044.72;;;15.24;26.52
44481;BME280;30184;42.018;23.670;2023-02-17T12:03:40;92000.78;;;14.88;27.07
44481;BME280;30184;42.018;23.670;2023-02-17T12:06:13;92033.19;;;15.29;26.55
44481;BME280;30184;42.018;23.670;2023-02-17T12:08:59;92021.22;;;15.27;26.27
44481;BME280;30184;42.018;23.670;2023-02-17T12:11:38;92026.84;;;15.32;26.53
44481;BME280;30184;42.018;23.670;2023-02-17T12:14:38;92028.81;;;15.32;27.18
44481;BME280;30184;42.018;23.670;2023-02-17T12:17:14;92020.75;;;15.28;26.68
44481;BME280;30184;42.018;23.670;2023-02-17T12:19:52;92016.63;;;15.24;26.97
44481;BME280;30184;42.018;23.670;2023-02-17T12:22:33;91938.91;;;14.50;27.07
44481;BME280;30184;42.018;23.670;2023-02-17T12:25:21;91957.50;;;14.86;27.30
44481;BME280;30184;42.018;23.670;2023-02-17T12:28:01;91928.47;;;14.58;26.99
44481;BME280;30184;42.018;23.670;2023-02-17T12:30:43;91827.38;;;13.83;27.20
44481;BME280;30184;42.018;23.670;2023-02-17T12:33:37;91987.03;;;15.01;26.24
44481;BME280;30184;42.018;23.670;2023-02-17T12:36:12;91795.22;;;13.78;26.56
44481;BME280;30184;42.018;23.670;2023-02-17T12:38:46;92005.06;;;15.20;26.51
44481;BME280;30184;42.018;23.670;2023-02-17T12:41:19;92004.50;;;15.03;27.34
44481;BME280;30184;42.018;23.670;2023-02-17T12:43:52;91991.56;;;15.25;27.13
44481;BME280;30184;42.018;23.670;2023-02-17T12:46:26;91990.69;;;15.28;27.95
44481;BME280;30184;42.018;23.670;2023-02-17T12:48:59;91996.00;;;15.32;27.20
44481;BME280;30184;42.018;23.670;2023-02-17T12:51:34;91999.38;;;15.36;26.88
44481;BME280;30184;42.018;23.670;2023-02-17T12:54:12;91994.97;;;15.39;25.65
44481;BME280;30184;42.018;23.670;2023-02-17T12:56:51;92002.13;;;15.36;25.93
44481;BME280;30184;42.018;23.670;2023-02-17T12:59:25;91945.09;;;14.94;26.67
44481;BME280;30184;42.018;23.670;2023-02-17T13:01:58;92003.16;;;15.39;26.58
44481;BME280;30184;42.018;23.670;2023-02-17T13:04:30;91984.47;;;15.28;26.44
44481;BME280;30184;42.018;23.670;2023-02-17T13:07:16;92000.63;;;15.44;27.35
44481;BME280;30184;42.018;23.670;2023-02-17T13:09:49;92001.84;;;15.43;26.58
44481;BME280;30184;42.018;23.670;2023-02-17T13:12:34;92003.22;;;15.48;26.74
44481;BME280;30184;42.018;23.670;2023-02-17T13:15:04;92007.34;;;15.52;26.31
44481;BME280;30184;42.018;23.670;2023-02-17T13:17:38;92015.25;;;15.19;26.83
44481;BME280;30184;42.018;23.670;2023-02-17T13:23:35;92014.84;;;15.61;26.26